Time;durP1;ratioP1;P1;durP2;ratioP2;P2;SDS_P1;SDS_P2;PMS_P1;PMS_P2;Temp;Humidity;BMP_temperature;BMP_pressure;BME280_temperature;BME280_humidity;BME280_pressure;Samples;Min_cycle;Max_cycle;Signal;HPM_P1;HPM_P2
2022/01/04 20:55:46;;;;;;;;;;;7.20;94.70;;;;;;5079956;27;2071544;-66
2022/01/04 20:58:12;;;;;;;;;;;7.40;94.90;;;;;;5152133;27;19950;-66
2022/01/04 21:00:38;;;;;;;;;;;7.40;95.00;;;;;;5150859;27;19938;-66
2022/01/04 21:03:03;;;;;;;;;;;7.50;95.00;;;;;;5135810;27;20359;-66
2022/01/04 21:05:31;;;;;;;;;;;7.60;94.80;;;;;;5131332;28;19946;-66
2022/01/04 21:07:57;;;;;;;;;;;7.50;94.40;;;;;;5132689;27;19943;-66
2022/01/04 21:10:23;;;;;;;;;;;7.40;94.00;;;;;;5130540;27;19972;-66
2022/01/04 21:12:49;;;;;;;;;;;7.30;94.20;;;;;;5131138;28;19965;-66
2022/01/04 21:15:15;;;;;;;;;;;7.20;94.40;;;;;;5130639;28;20407;-66
2022/01/04 21:17:41;;;;;;;;;;;7.10;94.60;;;;;;5110504;28;20454;-66
2022/01/04 21:20:07;;;;;;;;;;;7.00;94.70;;;;;;5110556;28;19945;-66
2022/01/04 21:22:37;;;;;;;;;;;7.00;94.80;;;;;;5130595;28;20066;-66
2022/01/04 21:25:03;;;;;;;;;;;7.10;95.00;;;;;;5113360;28;19950;-66
2022/01/04 21:27:28;;;;;;;;;;;7.20;95.10;;;;;;5115539;28;19949;-66
2022/01/04 21:29:54;;;;;;;;;;;7.20;95.10;;;;;;5129013;28;19949;-66
2022/01/04 21:32:20;;;;;;;;;;;7.30;95.20;;;;;;5130781;28;19942;-66
2022/01/04 21:34:46;;;;;;;;;;;7.40;95.20;;;;;;5129691;28;19954;-66
2022/01/04 21:37:11;;;;;;;;;;;7.50;95.00;;;;;;5114939;28;20320;-66
2022/01/04 21:39:37;;;;;;;;;;;7.50;94.60;;;;;;5121356;28;20335;-66
2022/01/04 21:42:02;;;;;;;;;;;7.60;94.20;;;;;;5130538;28;19945;-66
2022/01/04 21:44:28;;;;;;;;;;;7.60;94.10;;;;;;5118952;28;20322;-66
2022/01/04 21:46:54;;;;;;;;;;;7.50;94.00;;;;;;5098948;28;20461;-66
2022/01/04 21:49:19;;;;;;;;;;;7.30;93.90;;;;;;5124268;28;19944;-66
2022/01/04 21:51:45;;;;;;;;;;;7.20;94.40;;;;;;5129269;28;20391;-66
2022/01/04 21:54:11;;;;;;;;;;;7.10;94.60;;;;;;5124345;28;19953;-66
2022/01/04 21:56:36;;;;;;;;;;;7.00;94.90;;;;;;5125713;28;20487;-66
2022/01/04 21:59:02;;;;;;;;;;;6.90;95.10;;;;;;5113456;28;19941;-66
2022/01/04 22:01:27;;;;;;;;;;;7.00;95.20;;;;;;5109352;28;19946;-66
2022/01/04 22:03:53;;;;;;;;;;;7.10;95.20;;;;;;5095607;28;19942;-66
2022/01/04 22:06:19;;;;;;;;;;;7.30;95.20;;;;;;5097087;28;19949;-66
2022/01/04 22:08:44;;;;;;;;;;;7.30;95.00;;;;;;5095836;28;19965;-66
2022/01/04 22:11:10;;;;;;;;;;;7.40;94.90;;;;;;5091208;28;19977;-66
2022/01/04 22:13:35;;;;;;;;;;;7.40;94.70;;;;;;5112770;28;19948;-66
2022/01/04 22:16:01;;;;;;;;;;;7.40;94.60;;;;;;5115923;28;19995;-66
2022/01/04 22:18:27;;;;;;;;;;;7.50;94.60;;;;;;5116203;28;19940;-66
2022/01/04 22:20:52;;;;;;;;;;;7.50;94.50;;;;;;5116146;28;20417;-66
2022/01/04 22:23:18;;;;;;;;;;;7.50;94.50;;;;;;5099751;28;19949;-66
2022/01/04 22:25:45;;;;;;;;;;;7.60;94.20;;;;;;5109601;28;19949;-66
2022/01/04 22:28:11;;;;;;;;;;;7.50;93.90;;;;;;5115889;28;20316;-66
2022/01/04 22:30:37;;;;;;;;;;;7.40;93.70;;;;;;5115962;28;19973;-66
2022/01/04 22:33:02;;;;;;;;;;;7.20;94.20;;;;;;5101746;28;20405;-66
2022/01/04 22:35:28;;;;;;;;;;;7.00;94.80;;;;;;5114466;28;20026;-66
2022/01/04 22:37:54;;;;;;;;;;;7.00;95.10;;;;;;5093942;28;19962;-66
2022/01/04 22:40:19;;;;;;;;;;;7.00;95.20;;;;;;5115801;28;19997;-66
2022/01/04 22:42:45;;;;;;;;;;;7.00;95.30;;;;;;5115787;28;19988;-66
2022/01/04 22:45:11;;;;;;;;;;;7.00;95.30;;;;;;5098508;28;19978;-66
2022/01/04 22:47:36;;;;;;;;;;;7.00;95.30;;;;;;5099541;28;19944;-66
2022/01/04 22:50:02;;;;;;;;;;;7.20;95.50;;;;;;5115547;28;20429;-66
2022/01/04 22:52:28;;;;;;;;;;;7.30;95.50;;;;;;5095863;28;19971;-66
2022/01/04 22:54:53;;;;;;;;;;;7.40;95.40;;;;;;5096233;28;20272;-66
2022/01/04 22:57:21;;;;;;;;;;;7.40;95.30;;;;;;5095005;28;19987;-66
2022/01/04 22:59:46;;;;;;;;;;;7.40;95.20;;;;;;5095088;28;19975;-66
2022/01/04 23:02:12;;;;;;;;;;;7.50;95.10;;;;;;5079874;28;20032;-66
2022/01/04 23:04:38;;;;;;;;;;;7.60;95.00;;;;;;5094925;28;20328;-66
2022/01/04 23:07:03;;;;;;;;;;;7.50;94.20;;;;;;5094900;28;19950;-66
2022/01/04 23:09:29;;;;;;;;;;;7.40;93.90;;;;;;5103184;28;19970;-66
2022/01/04 23:11:54;;;;;;;;;;;7.20;94.10;;;;;;5115123;28;19956;-66
2022/01/04 23:14:20;;;;;;;;;;;7.10;94.20;;;;;;5114196;28;19940;-66
2022/01/04 23:16:46;;;;;;;;;;;7.00;94.40;;;;;;5115326;28;19938;-66
2022/01/04 23:19:11;;;;;;;;;;;7.00;94.60;;;;;;5096332;28;19997;-66
2022/01/04 23:21:37;;;;;;;;;;;7.00;94.80;;;;;;5094672;28;19942;-66
2022/01/04 23:24:03;;;;;;;;;;;7.10;94.90;;;;;;5095635;28;20329;-66
2022/01/04 23:26:29;;;;;;;;;;;7.30;94.90;;;;;;5094478;28;19941;-66
2022/01/04 23:28:55;;;;;;;;;;;7.40;94.80;;;;;;5094469;28;19940;-66
2022/01/04 23:31:20;;;;;;;;;;;7.40;94.70;;;;;;5094398;28;20331;-66
2022/01/04 23:33:46;;;;;;;;;;;7.50;94.50;;;;;;5094458;28;20028;-66
2022/01/04 23:36:12;;;;;;;;;;;7.60;94.40;;;;;;5095699;28;20429;-66
2022/01/04 23:38:37;;;;;;;;;;;7.60;94.10;;;;;;5076160;28;20409;-66
2022/01/04 23:41:03;;;;;;;;;;;7.70;94.00;;;;;;5111571;28;20099;-66
2022/01/04 23:43:28;;;;;;;;;;;7.70;93.80;;;;;;5114613;28;19949;-66
2022/01/04 23:45:54;;;;;;;;;;;7.70;93.20;;;;;;5101371;28;20457;-66
2022/01/04 23:48:20;;;;;;;;;;;7.60;92.80;;;;;;5082579;28;19949;-66
2022/01/04 23:50:47;;;;;;;;;;;7.50;92.80;;;;;;5075876;28;20035;-66
2022/01/04 23:53:12;;;;;;;;;;;7.40;93.10;;;;;;5094030;28;19980;-66
2022/01/04 23:55:38;;;;;;;;;;;7.20;93.40;;;;;;5094862;28;20070;-66
2022/01/04 23:58:03;;;;;;;;;;;7.10;93.70;;;;;;5093973;28;19943;-66
